Time;durP1;ratioP1;P1;durP2;ratioP2;P2;SDS_P1;SDS_P2;PMS_P1;PMS_P2;Temp;Humidity;BMP_temperature;BMP_pressure;BME280_temperature;BME280_humidity;BME280_pressure;Samples;Min_cycle;Max_cycle;Signal;HPM_P1;HPM_P2
2022/12/04 00:01:28;;;;;;;;;;;2.40;99.90;;;;;;5025578;28;19965;-63
2022/12/04 00:03:57;;;;;;;;;;;2.40;99.90;;;;;;5012992;28;20485;-64
2022/12/04 00:06:25;;;;;;;;;;;2.40;99.90;;;;;;5005270;28;19972;-63
2022/12/04 00:08:53;;;;;;;;;;;2.40;99.90;;;;;;5014179;28;20075;-64
2022/12/04 00:11:22;;;;;;;;;;;2.40;99.90;;;;;;5012789;28;20080;-64
2022/12/04 00:13:49;;;;;;;;;;;2.40;99.90;;;;;;5017472;28;19971;-64
2022/12/04 00:16:18;;;;;;;;;;;2.40;99.90;;;;;;5015414;28;19965;-63
2022/12/04 00:18:47;;;;;;;;;;;2.40;99.90;;;;;;5008357;28;20011;-64
2022/12/04 00:21:16;;;;;;;;;;;2.60;99.90;;;;;;5006998;28;19965;-64
2022/12/04 00:23:44;;;;;;;;;;;2.50;99.90;;;;;;5007905;28;20493;-67
2022/12/04 00:26:13;;;;;;;;;;;2.60;99.90;;;;;;5009565;28;19976;-64
2022/12/04 00:28:41;;;;;;;;;;;2.60;99.90;;;;;;5010122;28;19965;-63
2022/12/04 00:31:10;;;;;;;;;;;2.70;99.90;;;;;;5003636;28;19972;-64
2022/12/04 00:33:38;;;;;;;;;;;2.60;99.90;;;;;;5003252;28;20017;-64
2022/12/04 00:36:08;;;;;;;;;;;2.50;99.90;;;;;;5009661;28;20377;-64
2022/12/04 00:38:37;;;;;;;;;;;2.40;99.90;;;;;;5011828;28;20425;-64
2022/12/04 00:41:04;;;;;;;;;;;2.50;99.90;;;;;;5009609;28;20055;-64
2022/12/04 00:43:32;;;;;;;;;;;2.40;99.90;;;;;;5005740;28;20449;-66
2022/12/04 00:46:00;;;;;;;;;;;2.40;99.90;;;;;;5007509;28;19964;-67
2022/12/04 00:48:28;;;;;;;;;;;2.30;99.90;;;;;;5007272;28;19964;-64
2022/12/04 00:50:57;;;;;;;;;;;2.30;99.90;;;;;;5007646;28;19971;-64
2022/12/04 00:53:26;;;;;;;;;;;2.40;99.90;;;;;;5010235;28;19968;-64
2022/12/04 00:55:54;;;;;;;;;;;2.30;99.90;;;;;;5023488;28;19987;-64
2022/12/04 00:58:22;;;;;;;;;;;2.30;99.90;;;;;;5024582;28;19965;-64
2022/12/04 01:00:50;;;;;;;;;;;2.30;99.90;;;;;;5011629;28;19965;-64
2022/12/04 01:03:17;;;;;;;;;;;2.40;99.90;;;;;;5010329;28;19971;-64
2022/12/04 01:05:45;;;;;;;;;;;2.40;99.90;;;;;;5009689;28;20480;-64
2022/12/04 01:08:13;;;;;;;;;;;2.50;99.90;;;;;;4999694;28;19968;-64
2022/12/04 01:10:42;;;;;;;;;;;2.60;99.90;;;;;;5011450;28;20419;-63
2022/12/04 01:13:26;;;;;;;;;;;2.50;99.90;;;;;;5010767;28;19995;-64
2022/12/04 01:15:54;;;;;;;;;;;2.40;99.90;;;;;;5018894;28;19964;-63
2022/12/04 01:18:21;;;;;;;;;;;2.40;99.90;;;;;;5011658;28;19968;-63
2022/12/04 01:20:50;;;;;;;;;;;2.40;99.90;;;;;;5011299;28;19971;-64
2022/12/04 01:23:18;;;;;;;;;;;2.40;99.90;;;;;;5010911;28;19964;-64
2022/12/04 01:25:51;;;;;;;;;;;2.40;99.90;;;;;;5010791;28;19964;-63
2022/12/04 01:28:19;;;;;;;;;;;2.40;99.90;;;;;;5011001;28;19970;-63
2022/12/04 01:30:56;;;;;;;;;;;2.40;99.90;;;;;;5009847;28;19968;-63
2022/12/04 01:33:24;;;;;;;;;;;2.40;99.90;;;;;;5012227;28;19972;-64
2022/12/04 01:35:52;;;;;;;;;;;2.50;99.90;;;;;;5004005;28;19998;-62
2022/12/04 01:38:20;;;;;;;;;;;2.40;99.90;;;;;;5007689;28;19974;-63
2022/12/04 01:40:48;;;;;;;;;;;2.40;99.90;;;;;;5011069;28;20348;-65
2022/12/04 01:43:17;;;;;;;;;;;2.30;99.90;;;;;;5009273;28;19971;-65
2022/12/04 01:45:46;;;;;;;;;;;2.20;99.90;;;;;;5002033;28;19963;-65
2022/12/04 01:48:18;;;;;;;;;;;2.30;99.90;;;;;;5007507;28;19969;-65
2022/12/04 01:50:47;;;;;;;;;;;2.30;99.90;;;;;;5009943;28;20007;-65
2022/12/04 01:53:17;;;;;;;;;;;2.30;99.90;;;;;;5013666;28;20215;-65
2022/12/04 01:55:46;;;;;;;;;;;2.30;99.90;;;;;;5014347;28;20347;-65
2022/12/04 01:58:15;;;;;;;;;;;2.30;99.90;;;;;;5016386;28;19968;-64
2022/12/04 02:00:44;;;;;;;;;;;2.30;99.90;;;;;;5019431;28;19973;-65
2022/12/04 02:03:18;;;;;;;;;;;2.50;99.90;;;;;;5018995;28;20493;-64
2022/12/04 02:05:46;;;;;;;;;;;2.40;99.90;;;;;;5016953;28;19965;-64
2022/12/04 02:08:13;;;;;;;;;;;2.40;99.90;;;;;;5018198;28;19968;-65
2022/12/04 02:10:45;;;;;;;;;;;2.40;99.90;;;;;;5016507;28;19972;-63
2022/12/04 02:13:16;;;;;;;;;;;2.40;99.90;;;;;;5023884;28;20441;-65
2022/12/04 02:15:48;;;;;;;;;;;2.50;99.90;;;;;;5021831;28;19979;-62
2022/12/04 02:18:21;;;;;;;;;;;2.60;99.90;;;;;;5018518;28;19979;-64
2022/12/04 02:20:52;;;;;;;;;;;2.90;99.90;;;;;;5015084;28;19979;-65
2022/12/04 02:23:28;;;;;;;;;;;2.70;99.90;;;;;;5015658;28;20339;-66
2022/12/04 02:26:01;;;;;;;;;;;2.70;99.90;;;;;;5014061;28;19964;-67
2022/12/04 02:28:34;;;;;;;;;;;2.80;99.90;;;;;;5015376;28;19991;-65
2022/12/04 02:31:03;;;;;;;;;;;2.80;99.90;;;;;;5015778;28;20342;-65
2022/12/04 02:33:34;;;;;;;;;;;2.60;99.90;;;;;;5014702;28;19971;-66
2022/12/04 02:36:05;;;;;;;;;;;2.50;99.90;;;;;;5019183;28;20341;-64
2022/12/04 02:38:34;;;;;;;;;;;2.50;99.90;;;;;;5022913;28;19973;-65
2022/12/04 02:41:06;;;;;;;;;;;2.50;99.90;;;;;;5016149;28;20426;-65
2022/12/04 02:43:36;;;;;;;;;;;2.40;99.90;;;;;;5013166;28;19974;-66
2022/12/04 02:46:06;;;;;;;;;;;2.40;99.90;;;;;;5011781;28;20062;-67
2022/12/04 02:48:36;;;;;;;;;;;2.50;99.90;;;;;;5014960;28;20011;-65
2022/12/04 02:51:05;;;;;;;;;;;2.40;99.90;;;;;;5013878;28;19964;-66
2022/12/04 02:53:34;;;;;;;;;;;2.40;99.90;;;;;;5017470;28;20336;-63
2022/12/04 02:56:05;;;;;;;;;;;2.30;99.90;;;;;;5014540;28;20067;-65
2022/12/04 02:58:34;;;;;;;;;;;2.30;99.90;;;;;;5013268;28;19972;-63
2022/12/04 03:01:18;;;;;;;;;;;2.30;99.90;;;;;;5018165;28;19963;-63
2022/12/04 03:03:49;;;;;;;;;;;2.30;99.90;;;;;;5010045;28;19989;-63
2022/12/04 03:06:18;;;;;;;;;;;2.40;99.90;;;;;;5012079;28;19965;-64
2022/12/04 03:08:47;;;;;;;;;;;2.40;99.90;;;;;;5013317;28;19975;-63
2022/12/04 03:11:15;;;;;;;;;;;2.50;99.90;;;;;;4991326;28;19975;-64
2022/12/04 03:13:45;;;;;;;;;;;2.40;99.90;;;;;;5010932;28;19971;-63
2022/12/04 03:16:15;;;;;;;;;;;2.50;99.90;;;;;;5008371;28;19968;-64
2022/12/04 03:18:46;;;;;;;;;;;2.50;99.90;;;;;;5019375;28;19967;-64
2022/12/04 03:21:16;;;;;;;;;;;2.50;99.90;;;;;;5010352;28;21779;-63
2022/12/04 03:23:44;;;;;;;;;;;2.50;99.90;;;;;;5011059;28;19965;-63
2022/12/04 03:26:15;;;;;;;;;;;2.50;99.90;;;;;;5013129;28;19964;-64
2022/12/04 03:28:46;;;;;;;;;;;2.40;99.90;;;;;;5010859;28;19975;-64
2022/12/04 03:31:17;;;;;;;;;;;2.40;99.90;;;;;;5010047;28;20567;-63
2022/12/04 03:33:47;;;;;;;;;;;2.50;99.90;;;;;;5017649;28;19982;-64
2022/12/04 03:36:18;;;;;;;;;;;2.70;99.90;;;;;;5010974;28;19972;-64
2022/12/04 03:38:47;;;;;;;;;;;2.60;99.90;;;;;;5016595;28;20079;-63
2022/12/04 03:41:18;;;;;;;;;;;2.60;99.90;;;;;;5009692;28;19969;-64
2022/12/04 03:43:48;;;;;;;;;;;2.70;99.90;;;;;;5011040;28;20007;-63
2022/12/04 03:46:22;;;;;;;;;;;2.60;99.90;;;;;;5008641;28;19972;-63
2022/12/04 03:48:52;;;;;;;;;;;2.60;99.90;;;;;;5011344;28;20449;-63
2022/12/04 03:51:22;;;;;;;;;;;2.40;99.90;;;;;;5019738;28;19971;-65
2022/12/04 03:53:52;;;;;;;;;;;2.40;99.90;;;;;;5010316;28;19965;-63
2022/12/04 03:56:22;;;;;;;;;;;2.40;99.90;;;;;;5032082;22;20050;-62
2022/12/04 03:58:51;;;;;;;;;;;2.50;99.90;;;;;;5025388;28;19972;-61
2022/12/04 04:01:22;;;;;;;;;;;2.50;99.90;;;;;;5027769;28;19964;-61
2022/12/04 04:03:52;;;;;;;;;;;2.50;99.90;;;;;;5028995;28;19965;-61
2022/12/04 04:06:22;;;;;;;;;;;2.50;99.90;;;;;;5028143;28;19969;-61
2022/12/04 04:08:53;;;;;;;;;;;2.40;99.90;;;;;;5027502;28;19965;-61
2022/12/04 04:11:23;;;;;;;;;;;2.40;99.90;;;;;;5025797;28;20051;-61
2022/12/04 04:25:11;;;;;;;;;;;2.30;99.90;;;;;;5028463;28;20324;-63
2022/12/04 04:27:38;;;;;;;;;;;2.40;99.90;;;;;;5029033;28;19976;-63
2022/12/04 04:30:08;;;;;;;;;;;2.40;99.90;;;;;;5028967;28;19975;-63
2022/12/04 04:32:40;;;;;;;;;;;2.50;99.90;;;;;;5029856;28;19971;-62
2022/12/04 04:35:13;;;;;;;;;;;2.60;99.90;;;;;;5025148;28;19970;-62
2022/12/04 04:37:46;;;;;;;;;;;2.50;99.90;;;;;;5027108;28;20433;-63
2022/12/04 04:40:17;;;;;;;;;;;2.60;99.90;;;;;;5024755;28;19972;-65
2022/12/04 04:42:49;;;;;;;;;;;2.50;99.90;;;;;;5029891;28;20446;-63
2022/12/04 04:45:19;;;;;;;;;;;2.50;99.90;;;;;;5027786;28;19982;-62
2022/12/04 04:47:49;;;;;;;;;;;2.50;99.90;;;;;;5029744;28;19971;-63
2022/12/04 04:50:18;;;;;;;;;;;2.50;99.90;;;;;;5027451;28;19964;-62
2022/12/04 04:52:48;;;;;;;;;;;2.40;99.90;;;;;;5024340;28;20354;-63
2022/12/04 04:55:16;;;;;;;;;;;2.50;99.90;;;;;;5031032;28;20437;-63
2022/12/04 04:57:44;;;;;;;;;;;2.40;99.90;;;;;;5031359;28;19964;-63
2022/12/04 05:00:13;;;;;;;;;;;2.40;99.90;;;;;;5029467;28;19970;-65
2022/12/04 05:02:41;;;;;;;;;;;2.30;99.90;;;;;;5029407;28;19963;-63
2022/12/04 05:05:11;;;;;;;;;;;2.40;99.90;;;;;;5030851;28;20095;-62
2022/12/04 05:07:40;;;;;;;;;;;2.30;99.90;;;;;;5027737;28;20023;-62
2022/12/04 05:10:08;;;;;;;;;;;2.30;99.90;;;;;;5023515;28;19964;-62
2022/12/04 05:12:36;;;;;;;;;;;2.50;99.90;;;;;;5022786;28;20045;-62
2022/12/04 05:15:04;;;;;;;;;;;2.40;99.90;;;;;;5022086;28;19964;-62
2022/12/04 05:17:34;;;;;;;;;;;2.40;99.90;;;;;;5023899;28;19974;-63
2022/12/04 05:20:01;;;;;;;;;;;2.40;99.90;;;;;;5026634;28;19979;-62
2022/12/04 05:22:31;;;;;;;;;;;2.30;99.90;;;;;;5021785;28;19976;-62
2022/12/04 05:24:59;;;;;;;;;;;2.30;99.90;;;;;;5020358;28;20321;-62
2022/12/04 05:27:27;;;;;;;;;;;2.30;99.90;;;;;;5023832;28;20433;-62
2022/12/04 05:29:55;;;;;;;;;;;2.30;99.90;;;;;;5021487;28;21406;-62
2022/12/04 05:32:24;;;;;;;;;;;2.30;99.90;;;;;;5021294;28;20245;-62
2022/12/04 05:34:53;;;;;;;;;;;2.30;99.90;;;;;;5022149;28;19964;-62
2022/12/04 05:37:20;;;;;;;;;;;2.20;99.90;;;;;;5021917;28;19965;-63
2022/12/04 05:39:49;;;;;;;;;;;2.30;99.90;;;;;;5021628;28;19975;-62
2022/12/04 05:42:17;;;;;;;;;;;2.30;99.90;;;;;;5026592;28;20642;-63
2022/12/04 05:44:45;;;;;;;;;;;2.20;99.90;;;;;;5020353;28;19964;-62
2022/12/04 05:47:12;;;;;;;;;;;2.20;99.90;;;;;;5020122;28;19965;-62
2022/12/04 05:49:40;;;;;;;;;;;2.20;99.90;;;;;;5026436;28;20474;-63
2022/12/04 05:52:09;;;;;;;;;;;2.20;99.90;;;;;;5021280;28;19964;-63
2022/12/04 05:54:37;;;;;;;;;;;2.40;99.90;;;;;;5026261;28;19964;-62
2022/12/04 05:57:06;;;;;;;;;;;2.40;99.90;;;;;;5028054;28;20365;-63
2022/12/04 05:59:34;;;;;;;;;;;2.40;99.90;;;;;;5026143;28;20508;-61
2022/12/04 06:02:02;;;;;;;;;;;2.50;99.90;;;;;;5022634;28;19964;-63
2022/12/04 06:04:29;;;;;;;;;;;2.40;99.90;;;;;;5024868;28;19967;-63
2022/12/04 06:06:57;;;;;;;;;;;2.30;99.90;;;;;;5026400;28;19963;-62
2022/12/04 06:09:25;;;;;;;;;;;2.30;99.90;;;;;;5026057;28;19969;-62
2022/12/04 06:11:56;;;;;;;;;;;2.30;99.90;;;;;;5028799;28;19964;-63
2022/12/04 06:14:25;;;;;;;;;;;2.40;99.90;;;;;;5022460;28;19975;-63
2022/12/04 06:16:53;;;;;;;;;;;2.60;99.90;;;;;;5028420;28;19971;-63
2022/12/04 06:19:21;;;;;;;;;;;2.60;99.90;;;;;;5028445;28;20430;-62
2022/12/04 06:21:50;;;;;;;;;;;2.50;99.90;;;;;;5027196;28;20444;-63
2022/12/04 06:24:20;;;;;;;;;;;2.50;99.90;;;;;;5029471;28;19971;-63
2022/12/04 06:26:48;;;;;;;;;;;2.40;99.90;;;;;;5025404;28;19973;-64
2022/12/04 06:29:37;;;;;;;;;;;2.40;99.90;;;;;;5025164;28;19964;-63
2022/12/04 06:32:05;;;;;;;;;;;2.30;99.90;;;;;;5023496;28;19979;-63
2022/12/04 06:34:34;;;;;;;;;;;2.30;99.90;;;;;;5025104;28;20023;-62
2022/12/04 06:37:02;;;;;;;;;;;2.30;99.90;;;;;;5027539;28;19967;-62
2022/12/04 06:39:29;;;;;;;;;;;2.30;99.90;;;;;;5034443;28;19971;-62
2022/12/04 06:41:57;;;;;;;;;;;2.50;99.90;;;;;;5030089;28;19964;-62
2022/12/04 06:44:25;;;;;;;;;;;2.40;99.90;;;;;;5023044;28;19971;-62
2022/12/04 06:46:54;;;;;;;;;;;2.40;99.90;;;;;;5029230;28;19970;-62
2022/12/04 06:49:21;;;;;;;;;;;2.30;99.90;;;;;;5024882;28;19971;-62
2022/12/04 06:51:49;;;;;;;;;;;2.30;99.90;;;;;;5029947;28;20481;-62
2022/12/04 06:54:17;;;;;;;;;;;2.30;99.90;;;;;;5031131;28;19987;-62
2022/12/04 06:56:45;;;;;;;;;;;2.30;99.90;;;;;;5030816;28;19974;-61
2022/12/04 06:59:12;;;;;;;;;;;2.20;99.90;;;;;;5029954;28;20426;-62
2022/12/04 07:01:40;;;;;;;;;;;2.30;99.90;;;;;;5027316;28;19969;-62
2022/12/04 07:04:09;;;;;;;;;;;2.30;99.90;;;;;;5028791;28;19972;-62
2022/12/04 07:06:38;;;;;;;;;;;2.50;99.90;;;;;;5027385;28;19968;-62
2022/12/04 07:09:08;;;;;;;;;;;2.50;99.90;;;;;;5025706;28;19967;-63
2022/12/04 07:11:36;;;;;;;;;;;2.60;99.90;;;;;;5028707;28;19972;-62
2022/12/04 07:14:04;;;;;;;;;;;2.60;99.90;;;;;;5032740;28;19965;-63
2022/12/04 07:16:32;;;;;;;;;;;2.50;99.90;;;;;;5030559;28;19977;-62
2022/12/04 07:19:07;;;;;;;;;;;2.40;99.90;;;;;;5030482;28;20080;-63
2022/12/04 07:21:36;;;;;;;;;;;2.40;99.90;;;;;;5031365;28;19983;-62
2022/12/04 07:24:04;;;;;;;;;;;2.30;99.90;;;;;;5032026;28;20527;-63
2022/12/04 07:26:32;;;;;;;;;;;2.30;99.90;;;;;;5030949;28;19971;-63
2022/12/04 07:29:00;;;;;;;;;;;2.30;99.90;;;;;;5031707;28;19964;-63
2022/12/04 07:31:28;;;;;;;;;;;2.30;99.90;;;;;;5030045;28;19971;-62
2022/12/04 07:33:57;;;;;;;;;;;2.30;99.90;;;;;;5029878;28;19968;-62
2022/12/04 07:36:26;;;;;;;;;;;2.30;99.90;;;;;;5031981;28;19967;-62
2022/12/04 07:38:56;;;;;;;;;;;2.30;99.90;;;;;;5032062;28;19964;-61
2022/12/04 07:41:24;;;;;;;;;;;2.40;99.90;;;;;;5031033;28;19963;-60
2022/12/04 07:43:51;;;;;;;;;;;2.40;99.90;;;;;;5031725;28;19971;-61
2022/12/04 07:46:20;;;;;;;;;;;2.40;99.90;;;;;;5031589;28;19964;-61
2022/12/04 07:48:48;;;;;;;;;;;2.40;99.90;;;;;;5029996;28;20027;-62
2022/12/04 07:51:16;;;;;;;;;;;2.50;99.90;;;;;;5030733;28;19982;-62
2022/12/04 07:53:44;;;;;;;;;;;2.50;99.90;;;;;;5028913;28;20455;-61
2022/12/04 07:56:13;;;;;;;;;;;2.50;99.90;;;;;;5031336;28;20011;-62
2022/12/04 07:58:42;;;;;;;;;;;2.50;99.90;;;;;;5030851;28;19975;-62
2022/12/04 08:01:11;;;;;;;;;;;2.50;99.90;;;;;;5031489;28;19964;-63
2022/12/04 08:03:39;;;;;;;;;;;2.50;99.90;;;;;;5032378;28;19972;-63
2022/12/04 08:06:14;;;;;;;;;;;2.60;99.90;;;;;;5031950;28;19969;-62
2022/12/04 08:08:42;;;;;;;;;;;2.50;99.90;;;;;;5031253;28;20008;-63
2022/12/04 08:11:11;;;;;;;;;;;2.50;99.90;;;;;;5031261;28;20467;-63
2022/12/04 08:13:40;;;;;;;;;;;2.50;99.90;;;;;;5032380;28;19984;-62
2022/12/04 08:16:09;;;;;;;;;;;2.60;99.90;;;;;;5031913;28;19963;-62
2022/12/04 08:18:37;;;;;;;;;;;2.60;99.90;;;;;;5030596;28;19971;-63
2022/12/04 08:21:05;;;;;;;;;;;2.60;99.90;;;;;;5030220;28;19975;-63
2022/12/04 08:23:33;;;;;;;;;;;2.60;99.90;;;;;;5031170;28;19973;-63
2022/12/04 08:26:01;;;;;;;;;;;2.60;99.90;;;;;;5025918;28;19965;-63
2022/12/04 08:28:29;;;;;;;;;;;2.50;99.90;;;;;;5022583;28;19965;-62
2022/12/04 08:31:03;;;;;;;;;;;2.50;99.90;;;;;;5027841;28;19968;-62
2022/12/04 08:33:31;;;;;;;;;;;2.60;99.90;;;;;;5027361;28;19978;-63
2022/12/04 08:35:59;;;;;;;;;;;2.60;99.90;;;;;;5026809;28;20046;-63
2022/12/04 08:38:27;;;;;;;;;;;2.60;99.90;;;;;;5024803;28;19968;-63
2022/12/04 08:40:54;;;;;;;;;;;2.60;99.90;;;;;;5027034;28;19982;-63
2022/12/04 08:43:22;;;;;;;;;;;2.60;99.90;;;;;;5030226;28;20315;-63
2022/12/04 08:45:54;;;;;;;;;;;2.60;99.90;;;;;;5030234;28;20511;-63
2022/12/04 08:48:23;;;;;;;;;;;2.60;99.90;;;;;;5025761;28;19977;-63
2022/12/04 08:50:51;;;;;;;;;;;2.60;99.90;;;;;;5025352;28;19990;-63
2022/12/04 08:53:19;;;;;;;;;;;2.60;99.90;;;;;;5025164;28;19965;-62
2022/12/04 08:55:47;;;;;;;;;;;2.60;99.90;;;;;;5024347;28;19972;-62
2022/12/04 08:58:15;;;;;;;;;;;2.60;99.90;;;;;;5023873;28;19970;-61
2022/12/04 09:00:43;;;;;;;;;;;2.60;99.90;;;;;;5021295;28;19990;-62
2022/12/04 09:03:12;;;;;;;;;;;2.60;99.90;;;;;;5023875;28;20437;-63
2022/12/04 09:05:41;;;;;;;;;;;2.60;99.90;;;;;;5025803;28;19971;-63
2022/12/04 09:08:09;;;;;;;;;;;2.60;99.90;;;;;;5025591;28;19970;-61
2022/12/04 09:10:37;;;;;;;;;;;2.60;99.90;;;;;;5026576;28;19968;-63
2022/12/04 09:13:05;;;;;;;;;;;2.70;99.90;;;;;;5027206;28;19971;-63
2022/12/04 09:15:33;;;;;;;;;;;2.60;99.90;;;;;;5025813;28;19972;-62
2022/12/04 09:18:01;;;;;;;;;;;2.60;99.90;;;;;;5025620;28;20059;-62
2022/12/04 09:20:28;;;;;;;;;;;2.60;99.90;;;;;;5029945;28;19964;-63
2022/12/04 09:22:57;;;;;;;;;;;2.60;99.90;;;;;;5030515;28;20440;-62
2022/12/04 09:25:35;;;;;;;;;;;2.60;99.90;;;;;;5029628;28;19972;-63
2022/12/04 09:28:04;;;;;;;;;;;2.60;99.90;;;;;;5022523;28;19965;-62
2022/12/04 09:30:32;;;;;;;;;;;2.70;99.90;;;;;;5027943;28;20038;-62
2022/12/04 09:32:59;;;;;;;;;;;2.70;99.90;;;;;;5021071;28;19965;-62
2022/12/04 09:35:28;;;;;;;;;;;2.70;99.90;;;;;;5026831;28;20516;-62
2022/12/04 09:37:58;;;;;;;;;;;2.70;99.90;;;;;;5031559;28;19975;-62
2022/12/04 09:40:26;;;;;;;;;;;2.70;99.90;;;;;;5027958;28;20573;-62
2022/12/04 09:43:07;;;;;;;;;;;2.60;99.90;;;;;;5021185;28;19965;-63
2022/12/04 09:45:40;;;;;;;;;;;2.70;99.90;;;;;;5025414;28;19968;-62
2022/12/04 09:48:10;;;;;;;;;;;2.70;99.90;;;;;;5027557;28;19968;-62
2022/12/04 09:50:40;;;;;;;;;;;2.70;99.90;;;;;;5028158;28;19977;-62
2022/12/04 09:53:11;;;;;;;;;;;2.80;99.90;;;;;;5025609;28;19968;-62
2022/12/04 09:55:41;;;;;;;;;;;2.80;99.90;;;;;;5049090;22;19964;-63
2022/12/04 09:58:12;;;;;;;;;;;2.70;99.90;;;;;;5010395;28;20480;-64
2022/12/04 10:00:42;;;;;;;;;;;2.80;99.90;;;;;;5009446;28;19971;-63
2022/12/04 10:03:13;;;;;;;;;;;2.80;99.90;;;;;;5011342;28;19975;-63
2022/12/04 10:05:59;;;;;;;;;;;2.80;99.90;;;;;;5002321;28;19969;-64
2022/12/04 10:08:29;;;;;;;;;;;2.80;99.90;;;;;;4985483;28;19964;-63
2022/12/04 10:11:01;;;;;;;;;;;2.90;99.90;;;;;;4998169;28;20064;-63
2022/12/04 10:13:44;;;;;;;;;;;2.80;99.90;;;;;;5001130;28;20323;-63
2022/12/04 10:16:14;;;;;;;;;;;2.80;99.90;;;;;;5006208;28;19968;-63
2022/12/04 10:18:47;;;;;;;;;;;2.90;99.90;;;;;;4998151;28;19973;-63
2022/12/04 10:21:23;;;;;;;;;;;2.90;99.90;;;;;;4998157;28;19973;-63
2022/12/04 10:24:01;;;;;;;;;;;2.90;99.90;;;;;;4997928;28;19987;-65
2022/12/04 10:26:30;;;;;;;;;;;2.90;99.90;;;;;;4992891;28;20556;-63
2022/12/04 10:29:00;;;;;;;;;;;2.90;99.90;;;;;;5000960;28;19963;-63
2022/12/04 10:31:29;;;;;;;;;;;3.00;99.90;;;;;;4992053;28;19965;-63
2022/12/04 10:34:01;;;;;;;;;;;3.00;99.90;;;;;;4993849;28;19969;-63
2022/12/04 10:36:32;;;;;;;;;;;3.00;99.90;;;;;;4995141;28;20385;-63
2022/12/04 10:39:03;;;;;;;;;;;3.00;99.90;;;;;;4994914;28;20510;-63
2022/12/04 10:41:34;;;;;;;;;;;3.00;99.90;;;;;;4975575;28;20075;-62
2022/12/04 10:44:02;;;;;;;;;;;3.10;99.90;;;;;;4976176;28;19970;-64
2022/12/04 10:46:31;;;;;;;;;;;3.10;99.90;;;;;;4975966;28;19979;-62
2022/12/04 10:49:01;;;;;;;;;;;3.10;99.90;;;;;;4975838;28;19977;-62
2022/12/04 10:51:31;;;;;;;;;;;3.10;99.90;;;;;;4975117;28;19975;-63
2022/12/04 10:53:59;;;;;;;;;;;3.10;99.90;;;;;;4978744;28;19972;-63
2022/12/04 10:56:28;;;;;;;;;;;3.10;99.90;;;;;;4994741;28;19999;-63
2022/12/04 10:58:57;;;;;;;;;;;3.10;99.90;;;;;;4995154;28;19963;-63
2022/12/04 11:01:25;;;;;;;;;;;3.10;99.90;;;;;;4994528;28;19973;-62
2022/12/04 11:04:00;;;;;;;;;;;3.10;99.90;;;;;;4994863;28;19973;-62
2022/12/04 11:06:28;;;;;;;;;;;3.10;99.90;;;;;;4994923;28;20006;-62
2022/12/04 11:08:56;;;;;;;;;;;3.10;99.90;;;;;;4995144;28;19977;-62
2022/12/04 11:11:26;;;;;;;;;;;3.20;99.90;;;;;;4994313;28;19969;-62
2022/12/04 11:14:13;;;;;;;;;;;3.20;99.90;;;;;;4994395;28;20020;-63
2022/12/04 11:16:43;;;;;;;;;;;3.20;99.90;;;;;;4994553;28;19992;-63
2022/12/04 11:19:21;;;;;;;;;;;3.30;99.90;;;;;;4994895;28;20019;-63
2022/12/04 11:21:49;;;;;;;;;;;3.30;99.90;;;;;;4994077;28;19972;-63
2022/12/04 11:24:19;;;;;;;;;;;3.30;99.90;;;;;;4993800;28;19969;-63
2022/12/04 11:26:47;;;;;;;;;;;3.30;99.90;;;;;;4994649;28;19982;-63
2022/12/04 11:29:19;;;;;;;;;;;3.40;99.90;;;;;;4994093;28;19965;-63
2022/12/04 11:31:51;;;;;;;;;;;3.40;99.90;;;;;;4993893;28;20073;-62
2022/12/04 11:34:20;;;;;;;;;;;3.40;99.90;;;;;;4994966;28;19969;-62
2022/12/04 11:36:51;;;;;;;;;;;3.50;99.90;;;;;;4994501;28;19975;-63
2022/12/04 11:39:20;;;;;;;;;;;3.50;99.90;;;;;;4994418;28;19975;-63
2022/12/04 11:41:58;;;;;;;;;;;3.50;99.90;;;;;;4993730;28;19992;-63
2022/12/04 11:44:31;;;;;;;;;;;3.50;99.90;;;;;;4994081;28;19966;-63
2022/12/04 11:47:01;;;;;;;;;;;3.50;99.90;;;;;;4994354;28;19979;-62
2022/12/04 11:49:30;;;;;;;;;;;3.50;99.90;;;;;;4994246;28;20020;-63
2022/12/04 11:52:04;;;;;;;;;;;3.50;99.90;;;;;;4993507;28;20405;-62
2022/12/04 11:54:37;;;;;;;;;;;3.50;99.90;;;;;;4994513;28;19979;-63
2022/12/04 11:57:10;;;;;;;;;;;3.60;99.90;;;;;;4994097;28;19977;-63
2022/12/04 11:59:46;;;;;;;;;;;3.60;99.90;;;;;;4993179;28;19965;-66
2022/12/04 12:02:30;;;;;;;;;;;3.60;99.90;;;;;;4993813;28;20461;-63
2022/12/04 12:05:15;;;;;;;;;;;3.60;99.90;;;;;;4994051;28;20000;-63
2022/12/04 12:07:47;;;;;;;;;;;3.60;99.90;;;;;;4994115;28;20331;-63
2022/12/04 12:10:17;;;;;;;;;;;3.60;99.90;;;;;;4993294;28;20035;-63
2022/12/04 12:12:51;;;;;;;;;;;3.60;99.90;;;;;;4993457;28;19976;-63
2022/12/04 12:15:24;;;;;;;;;;;3.60;99.90;;;;;;4993886;28;19969;-63
2022/12/04 12:18:07;;;;;;;;;;;3.60;99.90;;;;;;4993983;28;20504;-63
2022/12/04 12:20:37;;;;;;;;;;;3.60;99.90;;;;;;4993122;28;19973;-63
2022/12/04 12:23:23;;;;;;;;;;;3.60;99.90;;;;;;4993516;28;19982;-63
2022/12/04 12:25:55;;;;;;;;;;;3.60;99.90;;;;;;4993512;28;20456;-63
2022/12/04 12:28:28;;;;;;;;;;;3.60;99.90;;;;;;4993039;28;20058;-63
2022/12/04 12:31:04;;;;;;;;;;;3.60;99.90;;;;;;4992542;28;20056;-63
2022/12/04 12:33:35;;;;;;;;;;;3.60;99.90;;;;;;4993324;28;19968;-63
2022/12/04 12:36:04;;;;;;;;;;;3.70;99.90;;;;;;4992952;28;19964;-63
2022/12/04 12:38:34;;;;;;;;;;;3.60;99.90;;;;;;4993312;28;19959;-63
2022/12/04 12:41:04;;;;;;;;;;;3.60;99.90;;;;;;4992442;28;19978;-63
2022/12/04 12:43:33;;;;;;;;;;;3.60;99.90;;;;;;4992767;28;19965;-63
2022/12/04 12:46:06;;;;;;;;;;;3.70;99.90;;;;;;4984579;28;20061;-63
2022/12/04 12:48:37;;;;;;;;;;;3.70;99.90;;;;;;4992740;28;19964;-63
2022/12/04 12:51:07;;;;;;;;;;;3.70;99.90;;;;;;4992648;28;20287;-63
2022/12/04 12:53:56;;;;;;;;;;;3.70;99.90;;;;;;4993006;28;19922;-63
2022/12/04 12:56:29;;;;;;;;;;;3.80;99.90;;;;;;4992451;28;19961;-66
2022/12/04 12:58:59;;;;;;;;;;;3.80;99.90;;;;;;4992889;28;19927;-65
2022/12/04 13:01:36;;;;;;;;;;;3.70;99.90;;;;;;4992214;28;20433;-63
2022/12/04 13:04:09;;;;;;;;;;;3.70;99.90;;;;;;4992907;28;20009;-64
2022/12/04 13:06:38;;;;;;;;;;;3.70;99.90;;;;;;4992727;28;19959;-63
2022/12/04 13:09:09;;;;;;;;;;;3.60;99.90;;;;;;4992743;28;19968;-64
2022/12/04 13:11:37;;;;;;;;;;;3.70;99.90;;;;;;4992337;28;19921;-63
2022/12/04 13:14:05;;;;;;;;;;;3.70;99.90;;;;;;4992776;28;19944;-63
2022/12/04 13:16:36;;;;;;;;;;;3.70;99.90;;;;;;4992579;28;20322;-64
2022/12/04 13:19:07;;;;;;;;;;;3.70;99.90;;;;;;4992446;28;20307;-63
2022/12/04 13:21:36;;;;;;;;;;;3.70;99.90;;;;;;4991758;28;19964;-63
2022/12/04 13:24:16;;;;;;;;;;;3.70;99.90;;;;;;4992913;28;19921;-63
2022/12/04 13:26:47;;;;;;;;;;;3.70;99.90;;;;;;4992244;28;20310;-64
2022/12/04 13:29:18;;;;;;;;;;;3.70;99.90;;;;;;4992074;28;19929;-64
2022/12/04 13:31:52;;;;;;;;;;;3.70;99.90;;;;;;4991716;28;19926;-63
2022/12/04 13:34:39;;;;;;;;;;;3.70;99.90;;;;;;4992439;28;21253;-63
2022/12/04 13:37:24;;;;;;;;;;;3.70;99.90;;;;;;4992209;28;20024;-64
2022/12/04 13:40:11;;;;;;;;;;;3.70;99.90;;;;;;4991503;28;19922;-63
2022/12/04 13:42:38;;;;;;;;;;;3.80;99.90;;;;;;4992265;28;20401;-63
2022/12/04 13:45:10;;;;;;;;;;;3.80;99.90;;;;;;4991984;28;19925;-63
2022/12/04 13:47:39;;;;;;;;;;;3.80;99.90;;;;;;4991691;28;19928;-63
2022/12/04 13:50:08;;;;;;;;;;;3.80;99.90;;;;;;4990812;28;19922;-64
2022/12/04 13:52:39;;;;;;;;;;;3.80;99.90;;;;;;4987149;28;19926;-64
2022/12/04 13:55:22;;;;;;;;;;;3.80;99.90;;;;;;4991960;28;19948;-63
2022/12/04 13:57:52;;;;;;;;;;;3.80;99.90;;;;;;4991987;28;20494;-64
2022/12/04 14:00:25;;;;;;;;;;;3.80;99.90;;;;;;4991150;28;19925;-64
2022/12/04 14:02:56;;;;;;;;;;;3.80;99.90;;;;;;4992715;28;19922;-64
2022/12/04 14:05:28;;;;;;;;;;;3.80;99.90;;;;;;4992084;28;19926;-63
2022/12/04 14:08:01;;;;;;;;;;;3.90;99.90;;;;;;4991946;28;19925;-64
2022/12/04 14:10:36;;;;;;;;;;;3.90;99.90;;;;;;4991886;28;19922;-64
2022/12/04 14:13:05;;;;;;;;;;;3.90;99.90;;;;;;4991913;28;19922;-65
2022/12/04 14:15:34;;;;;;;;;;;3.90;99.90;;;;;;4992056;28;19922;-66
2022/12/04 14:18:04;;;;;;;;;;;3.90;99.90;;;;;;4992070;28;19925;-66
2022/12/04 14:20:33;;;;;;;;;;;3.80;99.90;;;;;;4991272;28;19926;-65
2022/12/04 14:23:25;;;;;;;;;;;3.80;99.90;;;;;;4991983;28;19921;-65
2022/12/04 14:25:55;;;;;;;;;;;3.90;99.90;;;;;;4991833;28;19922;-66
2022/12/04 14:28:25;;;;;;;;;;;3.80;99.90;;;;;;4989347;28;19921;-66
2022/12/04 14:31:13;;;;;;;;;;;3.80;99.90;;;;;;4991528;28;19928;-65
2022/12/04 14:33:44;;;;;;;;;;;3.80;99.90;;;;;;4982019;28;19922;-65
2022/12/04 14:36:17;;;;;;;;;;;3.80;99.90;;;;;;4991399;28;20302;-66
2022/12/04 14:38:46;;;;;;;;;;;3.80;99.90;;;;;;4992164;28;19922;-65
2022/12/04 14:41:13;;;;;;;;;;;3.80;99.90;;;;;;4991196;28;19921;-63
2022/12/04 14:43:44;;;;;;;;;;;3.80;99.90;;;;;;4991346;28;19921;-63
2022/12/04 14:46:15;;;;;;;;;;;3.80;99.90;;;;;;4991549;28;19929;-63
2022/12/04 14:48:48;;;;;;;;;;;3.80;99.90;;;;;;4991798;28;20365;-63
2022/12/04 14:51:18;;;;;;;;;;;3.70;99.90;;;;;;4990927;28;19922;-63
2022/12/04 14:53:48;;;;;;;;;;;3.70;99.90;;;;;;4991457;28;19925;-64
2022/12/04 14:56:34;;;;;;;;;;;3.70;99.90;;;;;;4991361;28;19933;-64
2022/12/04 14:59:05;;;;;;;;;;;3.70;99.90;;;;;;4993022;28;19921;-64
2022/12/04 15:01:36;;;;;;;;;;;3.70;99.90;;;;;;4994599;28;19922;-63